Watford City, ND

11:49 PM CDT on August 30, 2014 (GMT -0500)
Watford City | Change Station
CLOSE
Current Station
Airport
Location: Watford City,
Elevation: 2110 ft
Nearby Weather Stations

Elev 2110 ft 47.80 °N, 103.26 °W | Updated 14 minutes ago

Light Rain
Light Rain
59 °F
Feels Like 59 °F
N
6
Wind Variable Wind from NNW

Today
High -- | Low -- °F
--% Chance of Precip.
Yesterday
High -- | Low -- °F
Precip. -- in
7:08 AM 8:37 PM
Waxing Crescent, 27% visible
Pressure 29.68 in
Visibility 10.0 miles
Clouds Scattered Clouds 2700 ft
Dew Point 59 °F
Humidity 100%
Rainfall 0.01 in
Snow Depth Not available.
UV 0 out of 12
Pollen 9.50 out of 12
Air Quality Not available.
Flu Activity Not available.
METAR KS25 310435Z AUTO 34005KT 10SM -RA SCT027 15/15 A2968 RMK AO2

More Conditions Fewer Conditions

Pressure 29.68 in
Visibility 10.0 miles
Clouds Scattered Clouds 2700 ft
Dew Point 59 °F
Humidity 100%
Rainfall 0.01 in
Snow Depth Not available.
UV 0 out of 12
Pollen 9.50 out of 12
Air Quality Not available.
Flu Activity Not available.
METAR KS25 310435Z AUTO 34005KT 10SM -RA SCT027 15/15 A2968 RMK AO2

More Conditions Fewer Conditions

10-Day Weather Forecast

Almanac

Astronomy

Aug. 30, 2014 Rise Set
Actual Time 7:08 AM CDT 8:37 PM CDT
Civil Twilight 6:36 AM CDT 9:09 PM CDT
Nautical Twilight 5:57 AM CDT 9:48 PM CDT
Astronomical Twilight 5:14 AM CDT 10:30 PM CDT
Moon 12:22 PM CDT (8/30) 10:48 PM CDT (8/30)
Length of Visible Light 14h 33m
Length of Day
13h 28m
Tomorrow will be 3m 19s shorter.
Waxing Crescent, 27% of the Moon is Illuminated
Aug 31
Waxing Crescent
Sep 2
First Quarter
Sep 8
Full
Sep 15
Last Quarter
Sep 24
New

Yesterday's Extremes

State Highs State Lows

Community

WunderPhotos

Upload Photos

1,748,783 photos uploaded!

Nearby

Snow Depth

Station Depth Elevation
No new snow has been reported.

Earthquake Activity

City Distance Mag. Time & Date
No recent earthquake activity has been reported nearby.
Minimum magnitude displayed is 2.5.

Coastal Water Temperatures

Place Temperature
No Stations Reporting

Nearby Weather Stations